createdAt,value
2023-02-23T00:01:53.746Z,7.40
2023-02-23T00:04:25.054Z,7.30
2023-02-23T00:06:53.640Z,7.20
2023-02-23T00:09:24.483Z,7.30
2023-02-23T00:11:53.765Z,7.30
2023-02-23T00:14:24.573Z,7.30
2023-02-23T00:16:52.583Z,7.30
2023-02-23T00:19:24.633Z,7.30
2023-02-23T00:21:52.887Z,7.30
2023-02-23T00:24:21.982Z,7.30
2023-02-23T00:26:51.405Z,7.30
2023-02-23T00:29:24.623Z,7.20
2023-02-23T00:31:53.817Z,7.30
2023-02-23T00:34:23.625Z,7.30
2023-02-23T00:36:51.922Z,7.30
2023-02-23T00:39:21.768Z,7.30
2023-02-23T00:41:54.307Z,7.30
2023-02-23T00:44:23.836Z,7.30
2023-02-23T00:46:52.772Z,7.30
2023-02-23T00:49:22.834Z,7.30
2023-02-23T00:51:53.115Z,7.30
2023-02-23T00:54:22.292Z,7.30
2023-02-23T00:56:50.823Z,7.20
2023-02-23T00:59:19.898Z,7.10
2023-02-23T01:01:48.039Z,7.10
2023-02-23T01:04:16.630Z,7.10
2023-02-23T01:06:46.099Z,7.10
2023-02-23T01:09:27.077Z,7.10
2023-02-23T01:11:56.889Z,7.10
2023-02-23T01:14:25.003Z,7.10
2023-02-23T01:16:52.941Z,7.10
2023-02-23T01:19:22.791Z,7.10
2023-02-23T01:21:50.674Z,7.10
2023-02-23T01:24:19.808Z,7.10
2023-02-23T01:26:47.990Z,7.10
2023-02-23T01:29:17.376Z,7.10
2023-02-23T01:31:47.433Z,7.10
2023-02-23T01:34:16.314Z,7.10
2023-02-23T01:36:45.269Z,7.10
2023-02-23T01:39:17.097Z,7.10
2023-02-23T01:41:46.613Z,7.10
2023-02-23T01:44:51.582Z,7.10
2023-02-23T01:47:20.364Z,7.10
2023-02-23T01:49:50.856Z,7.10
2023-02-23T01:52:20.674Z,7.10
2023-02-23T01:54:52.850Z,7.10
2023-02-23T01:57:25.154Z,7.10
2023-02-23T01:59:53.629Z,7.10
2023-02-23T02:02:32.645Z,7.10
2023-02-23T02:05:01.791Z,7.10
2023-02-23T02:07:31.939Z,7.10
2023-02-23T02:10:17.621Z,7.10
2023-02-23T02:12:51.819Z,7.10
2023-02-23T02:15:22.345Z,7.10
2023-02-23T02:18:08.983Z,7.10
2023-02-23T02:21:07.822Z,7.10
2023-02-23T02:24:38.799Z,7.00
2023-02-23T02:27:22.120Z,6.70
2023-02-23T02:30:17.184Z,6.60
2023-02-23T02:33:16.394Z,6.70
2023-02-23T02:36:22.004Z,6.80
2023-02-23T02:38:58.741Z,6.80
2023-02-23T02:41:36.898Z,6.80
2023-02-23T02:44:16.143Z,6.80
2023-02-23T02:46:49.522Z,6.80
2023-02-23T02:49:27.360Z,6.80
2023-02-23T02:52:01.276Z,6.80
2023-02-23T02:54:34.428Z,6.80
2023-02-23T02:57:04.320Z,6.80
2023-02-23T02:59:50.238Z,6.70
2023-02-23T03:02:38.324Z,6.80
2023-02-23T03:05:32.169Z,6.70
2023-02-23T03:08:28.586Z,6.70
2023-02-23T03:11:21.035Z,6.70
2023-02-23T03:14:20.072Z,6.70
2023-02-23T03:17:12.992Z,6.70
2023-02-23T03:20:06.882Z,6.70
2023-02-23T03:22:57.215Z,6.70
2023-02-23T03:25:47.703Z,6.70
2023-02-23T03:28:38.151Z,6.70
2023-02-23T03:31:30.180Z,6.70
2023-02-23T03:34:26.312Z,6.60
2023-02-23T03:37:20.972Z,6.50
2023-02-23T03:40:13.354Z,6.50
2023-02-23T03:43:00.289Z,6.60
2023-02-23T03:45:49.131Z,6.50
2023-02-23T03:48:37.237Z,6.50
2023-02-23T03:51:26.527Z,6.50
2023-02-23T03:54:17.949Z,6.50
2023-02-23T03:57:07.425Z,6.50
2023-02-23T03:59:57.899Z,6.40
2023-02-23T04:02:46.184Z,6.50
2023-02-23T04:05:36.781Z,6.40
2023-02-23T04:08:25.803Z,6.40
2023-02-23T04:11:20.167Z,6.40
2023-02-23T04:13:52.884Z,6.40
2023-02-23T04:16:20.163Z,6.40
2023-02-23T04:18:49.344Z,6.40
2023-02-23T04:21:17.565Z,6.40
2023-02-23T04:23:45.663Z,6.40
2023-02-23T04:26:13.499Z,6.40
2023-02-23T04:28:41.312Z,6.30
2023-02-23T04:31:09.170Z,6.30
2023-02-23T04:33:36.962Z,6.30
2023-02-23T04:36:07.143Z,6.30
2023-02-23T04:38:35.038Z,6.30
2023-02-23T04:41:02.932Z,6.30
2023-02-23T04:43:30.744Z,6.20
2023-02-23T04:45:58.564Z,6.20
2023-02-23T04:48:26.697Z,6.20
2023-02-23T04:50:54.662Z,6.30
2023-02-23T04:53:23.921Z,6.20
2023-02-23T04:55:51.685Z,6.20
2023-02-23T04:58:19.627Z,6.20
2023-02-23T05:00:47.944Z,6.20
2023-02-23T05:03:17.346Z,6.20
2023-02-23T05:05:46.085Z,6.10
2023-02-23T05:08:14.067Z,6.10
2023-02-23T05:10:43.487Z,6.10
2023-02-23T05:13:11.266Z,6.10
2023-02-23T05:15:39.325Z,6.10
2023-02-23T05:18:10.728Z,6.10
2023-02-23T05:20:38.530Z,6.10
2023-02-23T05:23:09.326Z,6.10
2023-02-23T05:25:39.008Z,6.10
2023-02-23T05:28:08.299Z,6.10
2023-02-23T05:30:36.446Z,6.10
2023-02-23T05:33:04.362Z,6.00
2023-02-23T05:35:32.303Z,6.00
2023-02-23T05:38:00.187Z,6.10
2023-02-23T05:40:28.077Z,6.10
2023-02-23T05:43:00.339Z,6.10
2023-02-23T05:45:29.733Z,6.10
2023-02-23T05:48:01.249Z,6.10
2023-02-23T05:50:29.410Z,6.10
2023-02-23T05:52:57.262Z,6.10
2023-02-23T05:55:28.190Z,6.10
2023-02-23T05:57:56.176Z,6.10
2023-02-23T06:00:24.393Z,6.10
2023-02-23T06:02:54.179Z,6.10
2023-02-23T06:05:22.042Z,6.10
2023-02-23T06:07:49.923Z,6.10
2023-02-23T06:10:18.277Z,6.10
2023-02-23T06:12:46.582Z,6.10
2023-02-23T06:15:14.344Z,6.00
2023-02-23T06:17:42.166Z,6.10
2023-02-23T06:20:13.402Z,6.10
2023-02-23T06:22:42.243Z,6.10
2023-02-23T06:25:12.820Z,6.10
2023-02-23T06:27:42.235Z,6.10
2023-02-23T06:30:11.392Z,6.00
2023-02-23T06:32:39.271Z,6.00
2023-02-23T06:35:08.773Z,6.00
2023-02-23T06:37:37.983Z,6.10
2023-02-23T06:40:07.172Z,6.00
2023-02-23T06:42:35.948Z,6.10
2023-02-23T06:45:03.978Z,6.10
2023-02-23T06:47:31.951Z,6.00
2023-02-23T06:50:01.967Z,6.00
2023-02-23T06:52:29.810Z,6.00
2023-02-23T06:54:59.341Z,5.90
2023-02-23T06:57:27.162Z,5.80
2023-02-23T06:59:54.895Z,5.80
2023-02-23T07:02:22.803Z,5.90
2023-02-23T07:04:50.695Z,5.90
2023-02-23T07:07:18.496Z,5.90
2023-02-23T07:09:46.291Z,6.00
2023-02-23T07:12:15.611Z,6.00
2023-02-23T07:14:43.709Z,6.00
2023-02-23T07:17:12.737Z,6.00
2023-02-23T07:19:41.169Z,6.00
2023-02-23T07:22:09.053Z,6.00
2023-02-23T07:24:37.417Z,6.10
2023-02-23T07:27:05.386Z,6.10
2023-02-23T07:29:34.516Z,6.10
2023-02-23T07:32:02.395Z,6.20
2023-02-23T07:34:30.295Z,6.20
2023-02-23T07:36:58.177Z,6.20
2023-02-23T07:39:26.568Z,6.30
2023-02-23T07:41:54.375Z,6.30
2023-02-23T07:44:22.339Z,6.30
2023-02-23T07:46:52.977Z,6.30
2023-02-23T07:49:23.677Z,6.30
2023-02-23T07:51:51.403Z,6.40
2023-02-23T07:54:19.307Z,6.30
2023-02-23T07:56:47.136Z,6.40
2023-02-23T07:59:15.351Z,6.40
2023-02-23T08:01:43.091Z,6.50
2023-02-23T08:04:12.260Z,6.60
2023-02-23T08:06:40.181Z,6.60
2023-02-23T08:09:08.443Z,6.70
2023-02-23T08:11:36.381Z,6.80
2023-02-23T08:14:04.187Z,6.90
2023-02-23T08:16:33.494Z,6.90
2023-02-23T08:19:02.233Z,7.00
2023-02-23T08:21:31.564Z,7.00
2023-02-23T08:23:59.651Z,7.10
2023-02-23T08:26:27.859Z,7.10
2023-02-23T08:28:56.526Z,7.20
2023-02-23T08:31:27.402Z,7.30
2023-02-23T08:33:55.259Z,7.30
2023-02-23T08:36:23.275Z,7.30
2023-02-23T08:38:54.111Z,7.20
2023-02-23T08:41:22.530Z,7.40
2023-02-23T08:43:50.499Z,7.30
2023-02-23T08:46:20.120Z,7.40
2023-02-23T08:48:48.303Z,7.60
2023-02-23T08:51:17.019Z,7.70
2023-02-23T08:53:44.904Z,7.80
2023-02-23T08:56:15.288Z,7.80
2023-02-23T08:58:43.680Z,7.70
2023-02-23T09:01:18.176Z,7.70
2023-02-23T09:03:46.455Z,7.80
2023-02-23T09:06:16.718Z,7.80
2023-02-23T09:08:45.135Z,7.80
2023-02-23T09:11:14.269Z,7.80
2023-02-23T09:13:42.043Z,7.80
2023-02-23T09:16:10.218Z,7.90
2023-02-23T09:18:38.328Z,8.00
2023-02-23T09:21:08.890Z,8.10
2023-02-23T09:23:37.694Z,8.20
2023-02-23T09:26:06.553Z,8.30
2023-02-23T09:28:38.051Z,8.20
2023-02-23T09:31:07.274Z,8.20
2023-02-23T09:33:35.102Z,8.20
2023-02-23T09:36:05.905Z,8.20
2023-02-23T09:38:33.674Z,8.30
2023-02-23T09:41:01.473Z,8.30
2023-02-23T09:43:35.151Z,8.30
2023-02-23T09:46:15.138Z,8.40
2023-02-23T09:48:43.931Z,8.80
2023-02-23T09:51:17.555Z,8.80
2023-02-23T09:53:49.854Z,8.60
2023-02-23T09:56:23.998Z,8.60
2023-02-23T09:58:52.119Z,8.70
2023-02-23T10:01:47.492Z,8.80
2023-02-23T10:04:22.310Z,8.70
2023-02-23T10:06:58.870Z,8.80
2023-02-23T10:09:39.838Z,8.70
2023-02-23T10:12:12.371Z,8.70
2023-02-23T10:15:11.179Z,8.70
2023-02-23T10:17:48.951Z,9.00
2023-02-23T10:20:26.678Z,9.10
2023-02-23T10:22:56.858Z,9.20
2023-02-23T10:25:26.973Z,9.10
2023-02-23T10:27:57.429Z,9.20
2023-02-23T10:30:27.252Z,9.30
2023-02-23T10:33:02.355Z,9.10
2023-02-23T10:35:32.093Z,9.00
2023-02-23T10:38:02.283Z,9.30
2023-02-23T10:40:33.296Z,9.40
2023-02-23T10:43:02.428Z,9.30
2023-02-23T10:45:35.268Z,9.20
2023-02-23T10:48:08.572Z,9.30
2023-02-23T10:50:39.421Z,9.10
2023-02-23T10:53:16.370Z,9.30
2023-02-23T10:55:45.526Z,9.40
2023-02-23T10:58:17.749Z,9.40
2023-02-23T11:00:54.683Z,9.20
2023-02-23T11:03:32.935Z,9.30
2023-02-23T11:06:01.289Z,9.50
2023-02-23T11:08:32.455Z,9.50
2023-02-23T11:11:09.490Z,9.60
2023-02-23T11:13:40.011Z,9.70
2023-02-23T11:16:13.063Z,9.70
2023-02-23T11:18:49.626Z,9.80
2023-02-23T11:21:24.109Z,9.90
2023-02-23T11:23:53.976Z,10.00
2023-02-23T11:26:29.594Z,10.10
2023-02-23T11:29:00.588Z,10.10
2023-02-23T11:31:34.685Z,10.20
2023-02-23T11:34:05.945Z,10.20
2023-02-23T11:36:35.549Z,10.20
2023-02-23T11:39:08.545Z,10.20
2023-02-23T11:41:37.315Z,10.20
2023-02-23T11:44:06.472Z,10.20
2023-02-23T11:46:37.701Z,10.30
2023-02-23T11:49:09.390Z,10.40
2023-02-23T11:51:39.123Z,10.40
2023-02-23T11:54:10.240Z,10.30
2023-02-23T11:56:38.211Z,10.30
2023-02-23T11:59:08.332Z,10.10
2023-02-23T12:01:41.620Z,10.20
2023-02-23T12:04:12.409Z,10.20
2023-02-23T12:06:41.843Z,10.20
2023-02-23T12:09:19.241Z,10.20
2023-02-23T12:11:51.562Z,10.40
2023-02-23T12:14:30.267Z,10.60
2023-02-23T12:17:05.082Z,10.80
2023-02-23T12:19:37.939Z,10.70
2023-02-23T12:22:11.539Z,10.80
2023-02-23T12:24:44.773Z,10.80
2023-02-23T12:27:16.468Z,10.90
2023-02-23T12:30:04.381Z,10.90
2023-02-23T12:32:44.729Z,10.60
2023-02-23T12:35:19.005Z,10.80
2023-02-23T12:37:50.520Z,10.70
2023-02-23T12:40:23.255Z,10.80
2023-02-23T12:42:58.378Z,10.70
2023-02-23T12:45:34.845Z,10.60
2023-02-23T12:48:09.677Z,10.60
2023-02-23T12:50:43.342Z,11.00
2023-02-23T12:53:20.801Z,11.00
2023-02-23T12:56:02.015Z,11.00
2023-02-23T12:58:38.769Z,11.00
2023-02-23T13:01:12.696Z,10.80
2023-02-23T13:04:23.498Z,11.00
2023-02-23T13:07:04.962Z,11.00
2023-02-23T13:09:45.709Z,11.10
2023-02-23T13:12:28.217Z,11.10
2023-02-23T13:15:03.222Z,11.00
2023-02-23T13:17:38.462Z,11.20
2023-02-23T13:20:16.013Z,11.10
2023-02-23T13:22:50.569Z,11.10
2023-02-23T13:25:29.075Z,11.00
2023-02-23T13:28:00.725Z,11.10
2023-02-23T13:30:33.039Z,11.20
2023-02-23T13:33:03.060Z,11.30
2023-02-23T13:35:35.308Z,11.20
2023-02-23T13:38:15.365Z,11.00
2023-02-23T13:40:49.555Z,11.10
2023-02-23T13:43:23.307Z,11.10
2023-02-23T13:46:00.752Z,11.20
2023-02-23T13:48:56.122Z,11.40
2023-02-23T13:51:34.294Z,11.50
2023-02-23T13:54:07.671Z,11.30
2023-02-23T13:56:42.731Z,11.30
2023-02-23T13:59:17.251Z,11.20
2023-02-23T14:01:47.473Z,11.20
2023-02-23T14:04:21.934Z,11.20
2023-02-23T14:06:56.432Z,11.30
2023-02-23T14:09:31.572Z,11.50
2023-02-23T14:12:06.527Z,11.70
2023-02-23T14:14:45.333Z,11.70
2023-02-23T14:17:41.355Z,11.80
2023-02-23T14:20:43.672Z,11.80
2023-02-23T14:23:50.422Z,11.80
2023-02-23T14:26:44.539Z,11.60
2023-02-23T14:29:26.481Z,11.60
2023-02-23T14:32:00.908Z,11.50
2023-02-23T14:34:52.897Z,11.40
2023-02-23T14:37:26.159Z,11.40
2023-02-23T14:39:56.272Z,11.30
2023-02-23T14:42:29.655Z,11.30
2023-02-23T14:45:03.862Z,11.20
2023-02-23T14:47:43.130Z,11.20
2023-02-23T14:50:18.881Z,11.20
2023-02-23T14:52:47.462Z,11.10
2023-02-23T14:55:23.139Z,11.00
2023-02-23T14:57:54.162Z,11.10
2023-02-23T15:00:25.476Z,11.10
2023-02-23T15:02:59.631Z,11.00
2023-02-23T15:05:30.797Z,11.00
2023-02-23T15:08:05.318Z,11.10
2023-02-23T15:10:36.296Z,11.10
2023-02-23T15:13:12.983Z,11.00
2023-02-23T15:15:45.765Z,10.90
2023-02-23T15:18:22.853Z,10.90
2023-02-23T15:20:51.567Z,10.90
2023-02-23T15:23:21.386Z,10.90
2023-02-23T15:25:51.075Z,10.90
2023-02-23T15:28:25.825Z,10.90
2023-02-23T15:30:55.342Z,10.90
2023-02-23T15:33:28.424Z,10.90
2023-02-23T15:36:02.357Z,10.90
2023-02-23T15:38:44.002Z,10.90
2023-02-23T15:41:19.534Z,10.90
2023-02-23T15:43:49.326Z,10.90
2023-02-23T15:46:24.490Z,10.80
2023-02-23T15:48:55.293Z,10.80
2023-02-23T15:51:32.045Z,10.80
2023-02-23T15:54:01.354Z,10.80
2023-02-23T15:56:30.874Z,10.80
2023-02-23T15:59:08.034Z,10.80
2023-02-23T16:01:42.787Z,10.80
2023-02-23T16:04:19.045Z,10.80
2023-02-23T16:06:55.189Z,10.70
2023-02-23T16:09:28.439Z,10.60
2023-02-23T16:12:01.505Z,10.60
2023-02-23T16:14:43.380Z,10.60
2023-02-23T16:17:21.964Z,10.60
2023-02-23T16:19:49.844Z,10.60
2023-02-23T16:22:24.518Z,10.60
2023-02-23T16:25:00.279Z,10.50
2023-02-23T16:27:29.972Z,10.50
2023-02-23T16:30:01.342Z,10.40
2023-02-23T16:32:39.769Z,10.40
2023-02-23T16:35:16.654Z,10.30
2023-02-23T16:38:01.897Z,10.30
2023-02-23T16:40:29.803Z,10.20
2023-02-23T16:42:59.359Z,10.10
2023-02-23T16:45:29.333Z,10.10
2023-02-23T16:48:01.972Z,10.10
2023-02-23T16:50:30.486Z,10.00
2023-02-23T16:52:58.251Z,10.00
2023-02-23T16:55:27.958Z,9.90
2023-02-23T16:57:57.808Z,9.90
2023-02-23T17:00:29.429Z,9.90
2023-02-23T17:02:58.473Z,9.80
2023-02-23T17:05:26.326Z,9.80
2023-02-23T17:07:54.743Z,9.80
2023-02-23T17:10:34.290Z,9.80
2023-02-23T17:13:05.406Z,9.70
2023-02-23T17:15:37.642Z,9.70
2023-02-23T17:18:06.263Z,9.80
2023-02-23T17:20:34.540Z,9.80
2023-02-23T17:23:03.211Z,9.70
2023-02-23T17:25:31.056Z,9.90
2023-02-23T17:27:59.844Z,10.10
2023-02-23T17:30:28.385Z,10.20
2023-02-23T17:32:59.999Z,10.40
2023-02-23T17:35:29.062Z,10.50
2023-02-23T17:37:56.841Z,10.60
2023-02-23T17:40:29.510Z,10.70
2023-02-23T17:42:58.958Z,10.70
2023-02-23T17:45:27.858Z,10.70
2023-02-23T17:47:57.279Z,10.70
2023-02-23T17:50:26.853Z,10.70
2023-02-23T17:52:55.303Z,10.80
2023-02-23T17:55:23.766Z,10.70
2023-02-23T17:57:51.644Z,10.80
2023-02-23T18:00:20.671Z,10.80
2023-02-23T18:02:48.723Z,10.80
2023-02-23T18:05:18.095Z,10.70
2023-02-23T18:07:48.274Z,10.70
2023-02-23T18:10:16.813Z,10.60
2023-02-23T18:12:45.071Z,10.60
2023-02-23T18:15:12.900Z,10.60
2023-02-23T18:17:40.752Z,10.60
2023-02-23T18:20:13.896Z,10.60
2023-02-23T18:22:43.696Z,10.60
2023-02-23T18:25:20.680Z,10.60
2023-02-23T18:27:51.502Z,10.60
2023-02-23T18:30:19.689Z,10.60
2023-02-23T18:32:50.417Z,10.50
2023-02-23T18:35:18.839Z,10.50
2023-02-23T18:37:48.662Z,10.50
2023-02-23T18:40:21.421Z,10.50
2023-02-23T18:42:49.477Z,10.50
2023-02-23T18:45:17.730Z,10.50
2023-02-23T18:47:45.540Z,10.50
2023-02-23T18:50:18.826Z,10.50
2023-02-23T18:52:48.915Z,10.50
2023-02-23T18:55:16.825Z,10.60
2023-02-23T18:57:44.749Z,10.60
2023-02-23T19:00:14.738Z,10.50
2023-02-23T19:02:43.285Z,10.60
2023-02-23T19:05:12.827Z,10.50
2023-02-23T19:07:41.402Z,10.40
2023-02-23T19:10:14.535Z,10.40
2023-02-23T19:12:42.373Z,10.30
2023-02-23T19:15:11.715Z,10.40
2023-02-23T19:17:39.714Z,10.40
2023-02-23T19:20:13.177Z,10.40
2023-02-23T19:22:41.842Z,10.40
2023-02-23T19:25:14.961Z,10.30
2023-02-23T19:27:43.445Z,10.20
2023-02-23T19:30:12.490Z,10.20
2023-02-23T19:32:40.526Z,10.20
2023-02-23T19:35:14.525Z,10.20
2023-02-23T19:37:47.390Z,10.20
2023-02-23T19:40:20.422Z,10.20
2023-02-23T19:42:49.371Z,10.10
2023-02-23T19:45:21.077Z,10.10
2023-02-23T19:47:48.839Z,10.10
2023-02-23T19:50:18.675Z,10.00
2023-02-23T19:52:47.173Z,10.00
2023-02-23T19:55:16.593Z,10.00
2023-02-23T19:57:44.570Z,10.10
2023-02-23T20:00:13.801Z,10.10
2023-02-23T20:02:43.490Z,10.10
2023-02-23T20:05:12.052Z,10.00
2023-02-23T20:07:40.225Z,9.90
2023-02-23T20:10:10.057Z,9.90
2023-02-23T20:12:39.230Z,9.80
2023-02-23T20:15:08.388Z,9.90
2023-02-23T20:17:36.871Z,9.90
2023-02-23T20:20:06.198Z,9.80
2023-02-23T20:22:36.270Z,9.80
2023-02-23T20:25:05.812Z,9.80
2023-02-23T20:27:33.862Z,9.80
2023-02-23T20:30:03.268Z,9.70
2023-02-23T20:32:31.162Z,9.70
2023-02-23T20:35:00.700Z,9.60
2023-02-23T20:37:28.566Z,9.70
2023-02-23T20:39:56.295Z,9.60
2023-02-23T20:42:24.562Z,9.70
2023-02-23T20:44:53.153Z,9.60
2023-02-23T20:47:22.927Z,9.60
2023-02-23T20:49:50.784Z,9.50
2023-02-23T20:52:18.597Z,9.60
2023-02-23T20:54:46.362Z,9.60
2023-02-23T20:57:14.153Z,9.60
2023-02-23T20:59:43.049Z,9.60
2023-02-23T21:02:13.910Z,9.50
2023-02-23T21:04:44.154Z,9.50
2023-02-23T21:07:13.288Z,9.50
2023-02-23T21:09:41.549Z,9.50
2023-02-23T21:12:10.296Z,9.50
2023-02-23T21:14:38.181Z,9.40
2023-02-23T21:17:05.954Z,9.50
2023-02-23T21:19:33.786Z,9.40
2023-02-23T21:22:02.983Z,9.40
2023-02-23T21:24:33.714Z,9.40
2023-02-23T21:27:05.169Z,9.40
2023-02-23T21:29:33.100Z,9.30
2023-02-23T21:32:00.974Z,9.30
2023-02-23T21:34:28.916Z,9.30
2023-02-23T21:36:59.004Z,9.30
2023-02-23T21:39:28.390Z,9.30
2023-02-23T21:41:56.557Z,9.30
2023-02-23T21:44:24.735Z,9.30
2023-02-23T21:46:52.983Z,9.20
2023-02-23T21:49:21.165Z,9.20
2023-02-23T21:51:49.010Z,9.20
2023-02-23T21:54:18.410Z,9.20
2023-02-23T21:56:47.543Z,9.20
2023-02-23T21:59:15.323Z,9.20
2023-02-23T22:01:43.516Z,9.20
2023-02-23T22:04:15.368Z,9.20
2023-02-23T22:06:45.303Z,9.10
2023-02-23T22:09:15.417Z,9.00
2023-02-23T22:11:46.324Z,9.00
2023-02-23T22:14:17.967Z,9.00
2023-02-23T22:16:46.550Z,9.00
2023-02-23T22:19:14.441Z,9.00
2023-02-23T22:21:42.992Z,9.10
2023-02-23T22:24:11.980Z,9.00
2023-02-23T22:26:41.760Z,9.00
2023-02-23T22:29:11.290Z,8.90
2023-02-23T22:31:40.630Z,8.90
2023-02-23T22:34:08.868Z,8.90
2023-02-23T22:36:36.626Z,8.80
2023-02-23T22:39:06.783Z,8.80
2023-02-23T22:41:42.058Z,8.70
2023-02-23T22:44:13.193Z,8.80
2023-02-23T22:46:42.842Z,8.80
2023-02-23T22:49:11.724Z,8.80
2023-02-23T22:51:39.797Z,8.70
2023-02-23T22:54:08.112Z,8.80
2023-02-23T22:56:36.827Z,8.80
2023-02-23T23:01:50.044Z,8.70
2023-02-23T23:04:19.461Z,8.60
2023-02-23T23:06:47.649Z,8.60
2023-02-23T23:09:16.412Z,8.60
2023-02-23T23:11:44.814Z,8.60
2023-02-23T23:14:13.458Z,8.60
2023-02-23T23:16:47.590Z,8.60
2023-02-23T23:19:23.808Z,8.60
2023-02-23T23:21:54.884Z,8.60
2023-02-23T23:24:23.995Z,8.50
2023-02-23T23:26:55.007Z,8.50
2023-02-23T23:29:25.581Z,8.50
2023-02-23T23:31:53.997Z,8.50
2023-02-23T23:34:23.133Z,8.50
2023-02-23T23:36:53.021Z,8.50
2023-02-23T23:39:22.865Z,8.50
2023-02-23T23:41:51.225Z,8.50
2023-02-23T23:44:21.059Z,8.50
2023-02-23T23:46:50.533Z,8.50
2023-02-23T23:49:20.005Z,8.50
2023-02-23T23:51:50.899Z,8.50
2023-02-23T23:54:21.373Z,8.40
2023-02-23T23:56:49.496Z,8.50
2023-02-23T23:59:21.196Z,8.40
